Anacoco, LA

11:07 AM CST on November 23, 2014 (GMT -0600)
Crosby Loop | Change Station
CLOSE
Current Station
Personal Weather Station
Location: Leesville, LA
Elevation: 256 ft
Nearby Weather Stations

Elev 256 ft 31.15 °N, 93.24 °W | Updated 2 seconds ago

Overcast
Overcast
63.7 °F
Feels Like 63.7 °F
N
4.6
Wind Variable Wind from East
Gusts 4.6 mph

Today
High -- | Low -- °F
--% Chance of Precip.
Yesterday
High -- | Low -- °F
Precip. -- in
6:47 AM 5:12 PM
New Moon, 2% visible
Pressure 29.58 in
Visibility 9.0 miles
Clouds Few 700 ft
Mostly Cloudy 1200 ft
Overcast 2200 ft
Dew Point 40 °F
Humidity 41%
Rainfall 1.16 in
Snow Depth Not available.
UV 1 out of 12
Pollen .40 out of 12
Air Quality Not available.
Flu Activity Not available.
SPECI KAQV 231702Z AUTO 21006KT 9SM FEW007 BKN012 OVC022 17/16 A2958 RMK AO2 RAE1658 T01720156 PNO $

More Conditions Fewer Conditions

Pressure 29.58 in
Visibility 9.0 miles
Clouds Few 700 ft
Mostly Cloudy 1200 ft
Overcast 2200 ft
Dew Point 40 °F
Humidity 41%
Rainfall 1.16 in
Snow Depth Not available.
UV 1 out of 12
Pollen .40 out of 12
Air Quality Not available.
Flu Activity Not available.
SPECI KAQV 231702Z AUTO 21006KT 9SM FEW007 BKN012 OVC022 17/16 A2958 RMK AO2 RAE1658 T01720156 PNO $

More Conditions Fewer Conditions

10-Day Weather Forecast

Almanac

Astronomy

Nov. 23, 2014 Rise Set
Actual Time
Civil Twilight
Nautical Twilight
Astronomical Twilight
Moon
Length of Visible Light
Length of Day
Tomorrow will be .
, % of the Moon is Illuminated

Today's Extremes

State Highs State Lows

Community

WunderPhotos

Upload Photos

1,773,098 photos uploaded!

WunderBlogs® & News

Nearby

Air Quality

  Air Quality AQ Index Pollutant
Not available.

Snow Depth

Station Depth Elevation

Earthquake Activity

City Distance Mag. Time & Date
Minimum magnitude displayed is 2.5.

Coastal Water Temperatures

Place Temperature

Nearby Weather Stations